Tropical Cyclones
[Index]
Main Index Home Page Stock Weather Photos Extreme Storms Discussion Storm News and Storm Chasing Reports Tropical Cyclones / Hurricanes / Typhoons Weather Data and Links Wild Fires / Bushfires Weather Observation Techniques Weather Picture Catalogue Tornado Pictures and Reports Stock Video Footage and DVDs for sale
Season 1979-1980 Tropical Cyclone TIA Track Map
Season 1979-1980 Summaries: [BoM-AU] [JTWC-AU] [JTWC-SIO] [JTWC-SPAC] [JTWC-SH]
<<- Previous TC | JTWC 1979-1980 Season | Next TC ->>

click for intensity scale information  Lat/long Grid: Show Hide

 Date Labels: Show Hide

Joint Typhoon Warning Centre Cyclone Data

Name: TIA

21 Mar 1980 00:00 UTC to 27 Mar 1980 12:00 UTC

    date/time    lat    long     hPa   cat  kts
1980-03-21 00   12.0   169.5                  30          
1980-03-21 06   12.0   170.3                  30          
1980-03-21 12   12.0   171.0                  30          
1980-03-21 18   12.0   171.5                  30          
1980-03-22 00   12.1   172.0                  30          
1980-03-22 06   12.2   173.0                  30          
1980-03-22 12   12.5   174.0                  30          
1980-03-22 18   13.2   175.1                  30          
1980-03-23 00   14.0   176.2                  30          
1980-03-23 06   14.5   176.7                  30          
1980-03-23 12   15.0   177.2                  35          
1980-03-23 18   15.9   178.2            1     50          
1980-03-24 00   16.8   179.5            2     60          
1980-03-24 06   17.4   179.0W           2     55          
1980-03-24 12   18.0   177.5W           1     45          
1980-03-24 18   18.7   176.0W           1     50          
1980-03-25 00   19.5   174.5W           1     50          
1980-03-25 06   20.0   172.4W           1     50          
1980-03-25 12   20.5   170.0W           1     45          
1980-03-25 18   21.4   168.2W           1     40          
1980-03-26 00   22.5   166.5W           1     40          
1980-03-26 06   23.6   165.2W           1     40          
1980-03-26 12   25.0   164.0W                 35          
1980-03-26 18   26.9   162.2W                 35          
1980-03-27 00   28.8   160.0W                 35          
1980-03-27 06   30.5   157.3W                 30          
1980-03-27 12   32.0   154.0W                 30          
Winds are 1-min average.

Tropical cyclone tracks developed by Michael Bath using data from the Joint Typhoon Warning Centre Best Tracks and Google Maps.


[Australian Severe Weather index] [Copyright Notice] [Email Contacts] [Search This Site] [Privacy Policy]
Document: tropical_cyclone_tia.htm Updated: 18 September 2016